| time (UTC) | temp F | wind direction | speed MPH | gust MPH | rain 1hr in | rain 24hr in | rain mn in | humidity % | barometer mb |
| 20260508204535 | 65 | 217 | 4.0 | 8.0 | 0.00 | 0.00 | 0.00 | 63 | 1014.8 |
| 20260508203031 | 63 | 34 | 4.0 | 9.0 | 0.00 | 0.00 | 0.00 | 64 | 1015.0 |
| 20260508201525 | 64 | 51 | 5.0 | 8.0 | 0.00 | 0.00 | 0.00 | 63 | 1015.2 |
| 20260508200025 | 63 | 76 | 1.0 | 6.0 | 0.00 | 0.00 | 0.00 | 62 | 1015.4 |
| 20260508194525 | 64 | 236 | 3.0 | 7.0 | 0.00 | 0.00 | 0.00 | 64 | 1015.5 |
| 20260508193023 | 64 | 118 | 2.0 | 9.0 | 0.00 | 0.00 | 0.00 | 62 | 1015.9 |
| 20260508191523 | 63 | 21 | 4.0 | 10.0 | 0.00 | 0.00 | 0.00 | 61 | 1015.7 |
| 20260508190121 | 64 | 204 | 5.0 | 8.0 | 0.00 | 0.00 | 0.00 | 63 | 1016.2 |
| 20260508184523 | 63 | 174 | 3.0 | 11.0 | 0.00 | 0.00 | 0.00 | 61 | 1016.3 |
| 20260508183021 | 64 | 46 | 5.0 | 10.0 | 0.00 | 0.00 | 0.00 | 62 | 1016.5 |
| 20260508181519 | 63 | 41 | 2.0 | 7.0 | 0.00 | 0.00 | 0.00 | 58 | 1016.5 |
| 20260508180018 | 62 | 17 | 3.0 | 12.0 | 0.00 | 0.00 | 0.00 | 58 | 1016.6 |
| 20260508174519 | 63 | 243 | 3.0 | 12.0 | 0.00 | 0.00 | 0.00 | 60 | 1016.8 |
| 20260508173015 | 62 | 38 | 4.0 | 7.0 | 0.00 | 0.00 | 0.00 | 61 | 1016.9 |
| 20260508171518 | 61 | 360 | 3.0 | 10.0 | 0.00 | 0.00 | 0.00 | 58 | 1017.2 |
| 20260508170016 | 62 | 49 | 3.0 | 8.0 | 0.00 | 0.00 | 0.00 | 60 | 1017.3 |
| 20260508164513 | 60 | 360 | 1.0 | 6.0 | 0.00 | 0.00 | 0.00 | 62 | 1017.7 |
| 20260508163016 | 61 | 170 | 5.0 | 8.0 | 0.00 | 0.00 | 0.00 | 65 | 1017.8 |
| 20260508161516 | 59 | 140 | 1.0 | 7.0 | 0.00 | 0.00 | 0.00 | 58 | 1018.1 |
| 20260508160010 | 59 | 188 | 4.0 | 9.0 | 0.00 | 0.00 | 0.00 | 64 | 1018.4 |
| 20260508154509 | 59 | 263 | 2.0 | 7.0 | 0.00 | 0.00 | 0.00 | 63 | 1018.6 |
| 20260508153016 | 58 | 196 | 3.0 | 6.0 | 0.00 | 0.00 | 0.00 | 65 | 1018.6 |
| 20260508151503 | 57 | 192 | 2.0 | 7.0 | 0.00 | 0.00 | 0.00 | 66 | 1018.8 |
| 20260508150003 | 56 | 210 | 0.0 | 8.0 | 0.00 | 0.00 | 0.00 | 64 | 1018.7 |
| 20260508144600 | 56 | 196 | 1.0 | 8.0 | 0.00 | 0.00 | 0.00 | 68 | 1018.9 |
| 20260508143117 | 55 | 190 | 2.0 | 5.0 | 0.00 | 0.00 | 0.00 | 72 | 1018.9 |
| 20260508141600 | 55 | 195 | 2.0 | 7.0 | 0.00 | 0.00 | 0.00 | 74 | 1019.0 |
| 20260508134547 | 51 | 148 | 1.0 | 6.0 | 0.00 | 0.00 | 0.00 | 87 | 1019.0 |
| 20260508133045 | 49 | 150 | 0.0 | 4.0 | 0.00 | 0.00 | 0.00 | 92 | 1019.1 |
| 20260508131544 | 47 | 126 | 0.0 | 0.0 | 0.00 | 0.00 | 0.00 | 97 | 1018.9 |
| 20260508130043 | 44 | 21 | 0.0 | 2.0 | 0.00 | 0.00 | 0.00 | 99 | 1018.8 |
| 20260508124542 | 42 | 32 | 0.0 | 0.0 | 0.00 | 0.00 | 0.00 | 99 | 1018.7 |
| 20260508123046 | 41 | 111 | 0.0 | 0.0 | 0.00 | 0.00 | 0.00 | 99 | 1018.6 |
| 20260508121539 | 41 | 115 | 0.0 | 0.0 | 0.00 | 0.00 | 0.00 | 98 | 1018.4 |
| 20260508120038 | 41 | 360 | 0.0 | 0.0 | 0.00 | 0.00 | 0.00 | 98 | 1018.3 |
| 20260508114536 | 40 | 360 | 0.0 | 0.0 | 0.00 | 0.14 | 0.00 | 98 | 1018.0 |
| 20260508113035 | 39 | 360 | 0.0 | 0.0 | 0.00 | 0.14 | 0.00 | 98 | 1017.9 |
| 20260508111536 | 39 | 360 | 0.0 | 0.0 | 0.00 | 0.14 | 0.00 | 97 | 1017.6 |
| 20260508110034 | 39 | 360 | 0.0 | 0.0 | 0.00 | 0.14 | 0.00 | 98 | 1017.0 |
| 20260508104530 | 39 | 360 | 0.0 | 0.0 | 0.00 | 0.19 | 0.00 | 97 | 1016.9 |
| 20260508103039 | 39 | 360 | 0.0 | 1.0 | 0.00 | 0.19 | 0.00 | 96 | 1016.7 |
| 20260508101525 | 40 | 360 | 0.0 | 0.0 | 0.00 | 0.19 | 0.00 | 96 | 1016.3 |
| 20260508100023 | 40 | 360 | 0.0 | 0.0 | 0.00 | 0.19 | 0.00 | 95 | 1015.9 |
| 20260508094521 | 40 | 360 | 0.0 | 0.0 | 0.00 | 0.19 | 0.00 | 96 | 1015.8 |
| 20260508093020 | 41 | 360 | 0.0 | 0.0 | 0.00 | 0.19 | 0.00 | 95 | 1015.8 |
| 20260508091516 | 41 | 360 | 0.0 | 0.0 | 0.00 | 0.19 | 0.00 | 95 | 1015.6 |
| 20260508090013 | 42 | 360 | 0.0 | 0.0 | 0.00 | 0.19 | 0.00 | 94 | 1015.5 |
| 20260508084512 | 42 | 360 | 0.0 | 1.0 | 0.00 | 0.19 | 0.00 | 93 | 1015.5 |
| 20260508083011 | 42 | 360 | 0.0 | 4.0 | 0.00 | 0.19 | 0.00 | 93 | 1015.1 |
| 20260508081507 | 43 | 360 | 0.0 | 0.0 | 0.00 | 0.19 | 0.00 | 92 | 1015.1 |
| 20260508080005 | 43 | 360 | 0.0 | 4.0 | 0.00 | 0.19 | 0.00 | 91 | 1014.8 |
| 20260508074504 | 43 | 360 | 2.0 | 4.0 | 0.00 | 0.19 | 0.00 | 90 | 1014.8 |
| 20260508073000 | 44 | 360 | 0.0 | 2.0 | 0.00 | 0.19 | 0.00 | 88 | 1014.6 |
| 20260508071558 | 45 | 360 | 0.0 | 4.0 | 0.00 | 0.19 | 0.00 | 88 | 1014.4 |
| 20260508070055 | 45 | 360 | 0.0 | 4.0 | 0.00 | 0.19 | 0.00 | 87 | 1014.4 |
| 20260508064552 | 46 | 106 | 1.0 | 5.0 | 0.00 | 0.19 | 0.00 | 86 | 1014.2 |
| 20260508063055 | 47 | 105 | 1.0 | 4.0 | 0.00 | 0.19 | 0.00 | 85 | 1014.3 |
| 20260508061547 | 48 | 103 | 0.0 | 4.0 | 0.00 | 0.19 | 0.00 | 83 | 1014.2 |
| 20260508060057 | 49 | 321 | 0.0 | 6.0 | 0.00 | 0.19 | 0.00 | 83 | 1014.0 |
| 20260508054618 | 48 | 94 | 2.0 | 7.0 | 0.00 | 0.19 | 0.00 | 84 | 1014.0 |
| 20260508053049 | 49 | 114 | 3.0 | 9.0 | 0.00 | 0.19 | 0.00 | 83 | 1014.1 |
| 20260508051537 | 50 | 242 | 1.0 | 5.0 | 0.00 | 0.19 | 0.00 | 83 | 1014.1 |
| 20260508050034 | 51 | 360 | 0.0 | 4.0 | 0.00 | 0.19 | 0.00 | 79 | 1014.3 |
| 20260508044533 | 51 | 59 | 6.0 | 14.0 | 0.00 | 0.19 | 0.00 | 78 | 1014.2 |
| 20260508043035 | 50 | 67 | 3.0 | 8.0 | 0.00 | 0.19 | 0.00 | 79 | 1014.1 |
| 20260508041528 | 51 | 57 | 4.0 | 11.0 | 0.00 | 0.19 | 0.00 | 81 | 1014.2 |
| 20260508040031 | 50 | 51 | 6.0 | 11.0 | 0.00 | 0.19 | 0.00 | 82 | 1014.1 |
| 20260508034533 | 51 | 109 | 6.0 | 11.0 | 0.00 | 0.19 | 0.19 | 83 | 1014.3 |
| 20260508033030 | 50 | 67 | 5.0 | 10.0 | 0.00 | 0.19 | 0.19 | 83 | 1014.3 |
| 20260508031523 | 50 | 59 | 6.0 | 12.0 | 0.00 | 0.19 | 0.19 | 86 | 1014.4 |
| 20260508030020 | 48 | 113 | 2.0 | 7.0 | 0.00 | 0.19 | 0.19 | 91 | 1014.7 |
| 20260508024518 | 48 | 94 | 2.0 | 6.0 | 0.00 | 0.22 | 0.19 | 92 | 1014.5 |
| 20260508023015 | 47 | 360 | 2.0 | 8.0 | 0.00 | 0.22 | 0.19 | 92 | 1014.1 |
| 20260508021513 | 48 | 360 | 0.0 | 0.0 | 0.00 | 0.22 | 0.19 | 92 | 1013.9 |
| 20260508020011 | 48 | 105 | 0.0 | 2.0 | 0.00 | 0.22 | 0.19 | 92 | 1013.6 |
| 20260508014510 | 48 | 103 | 1.0 | 4.0 | 0.00 | 0.23 | 0.19 | 91 | 1013.6 |
| 20260508013006 | 48 | 51 | 1.0 | 2.0 | 0.00 | 0.23 | 0.19 | 89 | 1013.1 |
| 20260508011504 | 49 | 27 | 0.0 | 4.0 | 0.00 | 0.23 | 0.19 | 87 | 1012.8 |
| 20260508004558 | 51 | 360 | 0.0 | 7.0 | 0.00 | 0.28 | 0.19 | 81 | 1012.9 |
| 20260508003055 | 52 | 82 | 1.0 | 14.0 | 0.00 | 0.28 | 0.19 | 81 | 1012.6 |
| 20260508001556 | 52 | 84 | 3.0 | 12.0 | 0.00 | 0.28 | 0.19 | 79 | 1012.3 |
| 20260508000051 | 53 | 294 | 3.0 | 11.0 | 0.00 | 0.28 | 0.19 | 78 | 1012.1 |
| 20260507234549 | 53 | 96 | 4.0 | 9.0 | 0.00 | 0.40 | 0.19 | 79 | 1012.0 |
| 20260507233149 | 54 | 84 | 4.0 | 13.0 | 0.00 | 0.40 | 0.19 | 79 | 1011.8 |
| 20260507231548 | 53 | 296 | 4.0 | 10.0 | 0.00 | 0.40 | 0.19 | 80 | 1011.7 |
| 20260507230045 | 54 | 258 | 6.0 | 13.0 | 0.00 | 0.40 | 0.19 | 82 | 1011.7 |
| 20260507224545 | 54 | 217 | 6.0 | 15.0 | 0.00 | 0.41 | 0.19 | 82 | 1011.6 |
| 20260507223039 | 55 | 91 | 5.0 | 16.0 | 0.00 | 0.41 | 0.19 | 82 | 1011.2 |
| 20260507221536 | 56 | 54 | 6.0 | 12.0 | 0.00 | 0.41 | 0.19 | 80 | 1011.0 |
| 20260507220031 | 57 | 277 | 4.0 | 10.0 | 0.00 | 0.41 | 0.19 | 79 | 1010.6 |
| 20260507214531 | 58 | 87 | 3.0 | 13.0 | 0.00 | 0.42 | 0.19 | 78 | 1010.4 |
| 20260507213030 | 59 | 309 | 7.0 | 14.0 | 0.00 | 0.42 | 0.19 | 76 | 1009.9 |
| 20260507211537 | 60 | 68 | 5.0 | 12.0 | 0.00 | 0.42 | 0.19 | 75 | 1009.9 |
| 20260507210028 | 61 | 208 | 5.0 | 12.0 | 0.00 | 0.42 | 0.19 | 76 | 1009.8 |